sensor_id;sensor_type;location;lat;lon;timestamp;P1;durP1;ratioP1;P2;durP2;ratioP2
11763;SDS011;5939;56.522;14.950;2023-03-07T00:02:22;1.50;;;1.40;;
11763;SDS011;5939;56.522;14.950;2023-03-07T00:04:48;3.50;;;1.60;;
11763;SDS011;5939;56.522;14.950;2023-03-07T00:07:14;1.77;;;1.33;;
11763;SDS011;5939;56.522;14.950;2023-03-07T00:09:39;3.33;;;1.57;;
11763;SDS011;5939;56.522;14.950;2023-03-07T00:12:06;1.70;;;1.43;;
11763;SDS011;5939;56.522;14.950;2023-03-07T00:14:33;1.80;;;1.40;;
11763;SDS011;5939;56.522;14.950;2023-03-07T00:16:58;2.40;;;1.30;;
11763;SDS011;5939;56.522;14.950;2023-03-07T00:19:24;1.93;;;1.60;;
11763;SDS011;5939;56.522;14.950;2023-03-07T00:21:50;2.70;;;1.47;;
11763;SDS011;5939;56.522;14.950;2023-03-07T00:24:15;1.93;;;1.60;;
11763;SDS011;5939;56.522;14.950;2023-03-07T00:26:41;3.17;;;1.47;;
11763;SDS011;5939;56.522;14.950;2023-03-07T00:29:07;2.70;;;1.40;;
11763;SDS011;5939;56.522;14.950;2023-03-07T00:31:33;2.50;;;1.40;;
11763;SDS011;5939;56.522;14.950;2023-03-07T00:33:59;2.07;;;1.30;;
11763;SDS011;5939;56.522;14.950;2023-03-07T00:36:25;2.60;;;1.20;;
11763;SDS011;5939;56.522;14.950;2023-03-07T00:38:51;1.70;;;1.50;;
11763;SDS011;5939;56.522;14.950;2023-03-07T00:41:19;2.90;;;1.53;;
11763;SDS011;5939;56.522;14.950;2023-03-07T00:43:46;2.80;;;1.40;;
11763;SDS011;5939;56.522;14.950;2023-03-07T00:46:12;1.70;;;1.40;;
11763;SDS011;5939;56.522;14.950;2023-03-07T00:48:39;2.63;;;1.30;;
11763;SDS011;5939;56.522;14.950;2023-03-07T00:51:06;2.63;;;1.50;;
11763;SDS011;5939;56.522;14.950;2023-03-07T00:53:34;2.57;;;1.30;;
11763;SDS011;5939;56.522;14.950;2023-03-07T00:56:04;1.47;;;1.30;;
11763;SDS011;5939;56.522;14.950;2023-03-07T00:58:35;3.07;;;1.47;;
11763;SDS011;5939;56.522;14.950;2023-03-07T01:01:01;1.63;;;1.30;;
11763;SDS011;5939;56.522;14.950;2023-03-07T01:03:29;2.30;;;1.40;;
11763;SDS011;5939;56.522;14.950;2023-03-07T01:05:56;1.97;;;1.40;;
11763;SDS011;5939;56.522;14.950;2023-03-07T01:08:22;3.03;;;1.70;;
11763;SDS011;5939;56.522;14.950;2023-03-07T01:10:48;2.73;;;1.47;;
11763;SDS011;5939;56.522;14.950;2023-03-07T01:13:15;1.57;;;1.20;;
11763;SDS011;5939;56.522;14.950;2023-03-07T01:15:41;2.20;;;1.40;;
11763;SDS011;5939;56.522;14.950;2023-03-07T01:18:08;1.70;;;1.37;;
11763;SDS011;5939;56.522;14.950;2023-03-07T01:20:35;1.83;;;1.50;;
11763;SDS011;5939;56.522;14.950;2023-03-07T01:23:02;1.80;;;1.50;;
11763;SDS011;5939;56.522;14.950;2023-03-07T01:25:28;2.70;;;1.70;;
11763;SDS011;5939;56.522;14.950;2023-03-07T01:27:54;2.10;;;1.47;;
11763;SDS011;5939;56.522;14.950;2023-03-07T01:30:20;2.17;;;1.53;;
11763;SDS011;5939;56.522;14.950;2023-03-07T01:32:52;2.10;;;1.30;;
11763;SDS011;5939;56.522;14.950;2023-03-07T01:35:22;1.40;;;1.30;;
11763;SDS011;5939;56.522;14.950;2023-03-07T01:37:49;2.30;;;1.50;;
11763;SDS011;5939;56.522;14.950;2023-03-07T01:40:15;2.63;;;1.40;;
11763;SDS011;5939;56.522;14.950;2023-03-07T01:42:41;2.20;;;1.60;;
11763;SDS011;5939;56.522;14.950;2023-03-07T01:47:39;1.57;;;1.47;;
11763;SDS011;5939;56.522;14.950;2023-03-07T01:50:11;2.80;;;1.70;;
11763;SDS011;5939;56.522;14.950;2023-03-07T01:52:39;2.17;;;1.50;;
11763;SDS011;5939;56.522;14.950;2023-03-07T01:55:28;1.90;;;1.50;;
11763;SDS011;5939;56.522;14.950;2023-03-07T01:57:57;1.70;;;1.47;;
11763;SDS011;5939;56.522;14.950;2023-03-07T02:00:27;1.43;;;1.33;;
11763;SDS011;5939;56.522;14.950;2023-03-07T02:03:03;1.77;;;1.40;;
11763;SDS011;5939;56.522;14.950;2023-03-07T02:05:46;3.23;;;1.73;;
11763;SDS011;5939;56.522;14.950;2023-03-07T02:08:16;2.93;;;1.57;;
11763;SDS011;5939;56.522;14.950;2023-03-07T02:10:44;2.07;;;1.60;;
11763;SDS011;5939;56.522;14.950;2023-03-07T02:13:10;1.60;;;1.47;;
11763;SDS011;5939;56.522;14.950;2023-03-07T02:15:35;2.50;;;1.50;;
11763;SDS011;5939;56.522;14.950;2023-03-07T02:18:02;2.63;;;1.67;;
11763;SDS011;5939;56.522;14.950;2023-03-07T02:23:10;1.70;;;1.60;;
11763;SDS011;5939;56.522;14.950;2023-03-07T02:28:25;2.60;;;1.70;;
11763;SDS011;5939;56.522;14.950;2023-03-07T02:30:53;2.83;;;1.73;;
11763;SDS011;5939;56.522;14.950;2023-03-07T02:33:19;2.77;;;1.70;;
11763;SDS011;5939;56.522;14.950;2023-03-07T02:35:48;1.60;;;1.50;;
11763;SDS011;5939;56.522;14.950;2023-03-07T02:38:20;3.07;;;1.50;;
11763;SDS011;5939;56.522;14.950;2023-03-07T02:40:47;3.17;;;1.50;;
11763;SDS011;5939;56.522;14.950;2023-03-07T02:43:13;2.93;;;1.40;;
11763;SDS011;5939;56.522;14.950;2023-03-07T02:45:40;2.17;;;1.60;;
11763;SDS011;5939;56.522;14.950;2023-03-07T02:48:05;3.00;;;1.70;;
11763;SDS011;5939;56.522;14.950;2023-03-07T02:50:31;3.83;;;2.03;;
11763;SDS011;5939;56.522;14.950;2023-03-07T02:52:58;2.13;;;1.57;;
11763;SDS011;5939;56.522;14.950;2023-03-07T02:55:24;1.43;;;1.27;;
11763;SDS011;5939;56.522;14.950;2023-03-07T02:57:50;1.70;;;1.60;;
11763;SDS011;5939;56.522;14.950;2023-03-07T03:00:16;1.87;;;1.50;;
11763;SDS011;5939;56.522;14.950;2023-03-07T03:02:41;2.70;;;1.50;;
11763;SDS011;5939;56.522;14.950;2023-03-07T03:05:07;2.33;;;1.77;;
11763;SDS011;5939;56.522;14.950;2023-03-07T03:07:33;1.77;;;1.50;;
11763;SDS011;5939;56.522;14.950;2023-03-07T03:09:59;2.17;;;1.70;;
11763;SDS011;5939;56.522;14.950;2023-03-07T03:12:25;2.27;;;1.60;;
11763;SDS011;5939;56.522;14.950;2023-03-07T03:14:50;2.00;;;1.67;;
11763;SDS011;5939;56.522;14.950;2023-03-07T03:17:16;2.77;;;1.60;;
11763;SDS011;5939;56.522;14.950;2023-03-07T03:19:42;3.13;;;1.63;;
11763;SDS011;5939;56.522;14.950;2023-03-07T03:22:08;2.93;;;1.50;;
11763;SDS011;5939;56.522;14.950;2023-03-07T03:24:36;2.60;;;1.40;;
11763;SDS011;5939;56.522;14.950;2023-03-07T03:27:06;2.07;;;1.53;;
11763;SDS011;5939;56.522;14.950;2023-03-07T03:29:32;1.23;;;1.13;;
11763;SDS011;5939;56.522;14.950;2023-03-07T03:31:58;2.17;;;1.57;;
11763;SDS011;5939;56.522;14.950;2023-03-07T03:34:23;1.97;;;1.70;;
11763;SDS011;5939;56.522;14.950;2023-03-07T03:36:49;3.40;;;1.70;;
11763;SDS011;5939;56.522;14.950;2023-03-07T03:39:15;2.43;;;1.60;;
11763;SDS011;5939;56.522;14.950;2023-03-07T03:41:41;2.17;;;1.63;;
11763;SDS011;5939;56.522;14.950;2023-03-07T03:44:06;3.43;;;1.63;;
11763;SDS011;5939;56.522;14.950;2023-03-07T03:46:32;2.60;;;1.90;;
11763;SDS011;5939;56.522;14.950;2023-03-07T03:48:59;1.90;;;1.60;;
11763;SDS011;5939;56.522;14.950;2023-03-07T03:51:25;4.10;;;1.80;;
11763;SDS011;5939;56.522;14.950;2023-03-07T03:53:51;3.07;;;1.80;;
11763;SDS011;5939;56.522;14.950;2023-03-07T03:56:21;2.50;;;1.70;;
11763;SDS011;5939;56.522;14.950;2023-03-07T03:58:48;3.43;;;2.00;;
11763;SDS011;5939;56.522;14.950;2023-03-07T04:01:15;2.90;;;1.80;;
11763;SDS011;5939;56.522;14.950;2023-03-07T04:03:44;5.47;;;1.93;;
11763;SDS011;5939;56.522;14.950;2023-03-07T04:06:12;4.03;;;1.83;;
11763;SDS011;5939;56.522;14.950;2023-03-07T04:08:40;3.47;;;1.70;;
11763;SDS011;5939;56.522;14.950;2023-03-07T04:11:06;2.40;;;1.50;;
11763;SDS011;5939;56.522;14.950;2023-03-07T04:13:32;1.97;;;1.73;;
11763;SDS011;5939;56.522;14.950;2023-03-07T04:15:59;2.40;;;1.80;;
11763;SDS011;5939;56.522;14.950;2023-03-07T04:18:25;2.33;;;1.80;;
11763;SDS011;5939;56.522;14.950;2023-03-07T04:20:51;4.03;;;1.70;;
11763;SDS011;5939;56.522;14.950;2023-03-07T04:23:17;2.97;;;1.90;;
11763;SDS011;5939;56.522;14.950;2023-03-07T04:25:50;4.20;;;1.90;;
11763;SDS011;5939;56.522;14.950;2023-03-07T04:28:22;4.10;;;1.80;;
11763;SDS011;5939;56.522;14.950;2023-03-07T04:30:49;2.90;;;1.77;;
11763;SDS011;5939;56.522;14.950;2023-03-07T04:33:18;2.23;;;1.50;;
11763;SDS011;5939;56.522;14.950;2023-03-07T04:35:44;3.70;;;1.83;;
11763;SDS011;5939;56.522;14.950;2023-03-07T04:38:10;4.20;;;1.67;;
11763;SDS011;5939;56.522;14.950;2023-03-07T04:40:37;3.13;;;1.40;;
11763;SDS011;5939;56.522;14.950;2023-03-07T04:43:03;3.20;;;1.53;;
11763;SDS011;5939;56.522;14.950;2023-03-07T04:45:29;3.23;;;1.93;;
11763;SDS011;5939;56.522;14.950;2023-03-07T04:47:57;3.63;;;1.70;;
11763;SDS011;5939;56.522;14.950;2023-03-07T04:50:22;2.20;;;1.60;;
11763;SDS011;5939;56.522;14.950;2023-03-07T04:52:48;4.53;;;2.10;;
11763;SDS011;5939;56.522;14.950;2023-03-07T04:55:14;1.90;;;1.70;;
11763;SDS011;5939;56.522;14.950;2023-03-07T04:57:40;2.23;;;1.60;;
11763;SDS011;5939;56.522;14.950;2023-03-07T05:00:06;3.50;;;2.03;;
11763;SDS011;5939;56.522;14.950;2023-03-07T05:02:35;6.30;;;2.00;;
11763;SDS011;5939;56.522;14.950;2023-03-07T05:05:02;2.70;;;1.70;;
11763;SDS011;5939;56.522;14.950;2023-03-07T05:07:28;3.53;;;2.07;;
11763;SDS011;5939;56.522;14.950;2023-03-07T05:09:54;2.37;;;1.80;;
11763;SDS011;5939;56.522;14.950;2023-03-07T05:12:20;3.20;;;1.87;;
11763;SDS011;5939;56.522;14.950;2023-03-07T05:14:46;2.60;;;1.90;;
11763;SDS011;5939;56.522;14.950;2023-03-07T05:17:12;4.33;;;2.03;;
11763;SDS011;5939;56.522;14.950;2023-03-07T05:19:38;2.10;;;1.90;;
11763;SDS011;5939;56.522;14.950;2023-03-07T05:22:04;2.83;;;1.90;;
11763;SDS011;5939;56.522;14.950;2023-03-07T05:24:29;3.27;;;2.07;;
11763;SDS011;5939;56.522;14.950;2023-03-07T05:26:55;2.43;;;1.80;;
11763;SDS011;5939;56.522;14.950;2023-03-07T05:29:21;2.50;;;1.97;;
11763;SDS011;5939;56.522;14.950;2023-03-07T05:31:46;2.60;;;1.80;;
11763;SDS011;5939;56.522;14.950;2023-03-07T05:34:12;2.73;;;1.77;;
11763;SDS011;5939;56.522;14.950;2023-03-07T05:36:39;4.37;;;2.00;;
11763;SDS011;5939;56.522;14.950;2023-03-07T05:39:05;3.20;;;1.83;;
11763;SDS011;5939;56.522;14.950;2023-03-07T05:41:31;3.47;;;2.03;;
11763;SDS011;5939;56.522;14.950;2023-03-07T05:43:56;2.70;;;1.90;;
11763;SDS011;5939;56.522;14.950;2023-03-07T05:46:22;2.40;;;1.97;;
11763;SDS011;5939;56.522;14.950;2023-03-07T05:48:48;3.33;;;2.07;;
11763;SDS011;5939;56.522;14.950;2023-03-07T05:51:14;3.23;;;1.97;;
11763;SDS011;5939;56.522;14.950;2023-03-07T05:53:39;4.40;;;2.27;;
11763;SDS011;5939;56.522;14.950;2023-03-07T05:56:05;4.17;;;2.20;;
11763;SDS011;5939;56.522;14.950;2023-03-07T05:58:31;3.20;;;1.77;;
11763;SDS011;5939;56.522;14.950;2023-03-07T06:00:57;4.63;;;2.10;;
11763;SDS011;5939;56.522;14.950;2023-03-07T06:03:22;3.97;;;2.10;;
11763;SDS011;5939;56.522;14.950;2023-03-07T06:05:48;2.73;;;1.83;;
11763;SDS011;5939;56.522;14.950;2023-03-07T06:08:14;5.10;;;3.23;;
11763;SDS011;5939;56.522;14.950;2023-03-07T06:10:40;3.00;;;2.17;;
11763;SDS011;5939;56.522;14.950;2023-03-07T06:13:17;3.30;;;2.03;;
11763;SDS011;5939;56.522;14.950;2023-03-07T06:15:44;2.77;;;2.03;;
11763;SDS011;5939;56.522;14.950;2023-03-07T06:18:12;4.90;;;2.20;;
11763;SDS011;5939;56.522;14.950;2023-03-07T06:20:38;5.73;;;2.77;;
11763;SDS011;5939;56.522;14.950;2023-03-07T06:23:04;4.60;;;2.63;;
11763;SDS011;5939;56.522;14.950;2023-03-07T06:25:29;5.67;;;2.70;;
11763;SDS011;5939;56.522;14.950;2023-03-07T06:27:55;4.17;;;2.70;;
11763;SDS011;5939;56.522;14.950;2023-03-07T06:30:25;5.23;;;3.03;;
11763;SDS011;5939;56.522;14.950;2023-03-07T06:32:53;4.40;;;3.00;;
11763;SDS011;5939;56.522;14.950;2023-03-07T06:35:19;4.40;;;2.77;;
11763;SDS011;5939;56.522;14.950;2023-03-07T06:37:45;5.33;;;3.00;;
11763;SDS011;5939;56.522;14.950;2023-03-07T06:40:10;5.03;;;3.33;;
11763;SDS011;5939;56.522;14.950;2023-03-07T06:42:36;5.30;;;3.00;;
11763;SDS011;5939;56.522;14.950;2023-03-07T06:45:02;7.23;;;2.80;;
11763;SDS011;5939;56.522;14.950;2023-03-07T06:47:28;4.37;;;3.00;;
11763;SDS011;5939;56.522;14.950;2023-03-07T06:49:54;5.57;;;2.80;;
11763;SDS011;5939;56.522;14.950;2023-03-07T06:52:20;4.10;;;2.83;;
11763;SDS011;5939;56.522;14.950;2023-03-07T06:54:46;3.50;;;2.67;;
11763;SDS011;5939;56.522;14.950;2023-03-07T06:57:12;6.33;;;3.50;;
11763;SDS011;5939;56.522;14.950;2023-03-07T06:59:37;6.90;;;3.50;;
11763;SDS011;5939;56.522;14.950;2023-03-07T07:02:03;5.50;;;2.80;;
11763;SDS011;5939;56.522;14.950;2023-03-07T07:04:29;3.57;;;2.60;;
11763;SDS011;5939;56.522;14.950;2023-03-07T07:06:55;4.10;;;2.83;;
11763;SDS011;5939;56.522;14.950;2023-03-07T07:09:20;3.20;;;2.70;;
11763;SDS011;5939;56.522;14.950;2023-03-07T07:11:46;5.57;;;2.60;;
11763;SDS011;5939;56.522;14.950;2023-03-07T07:14:12;4.53;;;2.60;;
11763;SDS011;5939;56.522;14.950;2023-03-07T07:16:38;3.43;;;2.30;;
11763;SDS011;5939;56.522;14.950;2023-03-07T07:19:03;2.80;;;2.13;;
11763;SDS011;5939;56.522;14.950;2023-03-07T07:21:29;4.83;;;2.40;;
11763;SDS011;5939;56.522;14.950;2023-03-07T07:23:55;3.27;;;2.00;;
11763;SDS011;5939;56.522;14.950;2023-03-07T07:26:22;6.20;;;2.30;;
11763;SDS011;5939;56.522;14.950;2023-03-07T07:28:48;7.27;;;2.57;;
11763;SDS011;5939;56.522;14.950;2023-03-07T07:31:14;2.13;;;1.93;;
11763;SDS011;5939;56.522;14.950;2023-03-07T07:33:40;2.77;;;2.00;;
11763;SDS011;5939;56.522;14.950;2023-03-07T07:36:06;2.30;;;2.03;;
11763;SDS011;5939;56.522;14.950;2023-03-07T07:38:33;3.13;;;1.80;;
11763;SDS011;5939;56.522;14.950;2023-03-07T07:40:59;1.97;;;1.77;;
11763;SDS011;5939;56.522;14.950;2023-03-07T07:43:26;2.03;;;1.33;;
11763;SDS011;5939;56.522;14.950;2023-03-07T07:45:52;2.80;;;2.00;;
11763;SDS011;5939;56.522;14.950;2023-03-07T07:48:17;3.00;;;1.87;;
11763;SDS011;5939;56.522;14.950;2023-03-07T07:50:43;2.70;;;1.77;;
11763;SDS011;5939;56.522;14.950;2023-03-07T07:53:10;2.70;;;1.60;;
11763;SDS011;5939;56.522;14.950;2023-03-07T07:55:35;2.30;;;1.73;;
11763;SDS011;5939;56.522;14.950;2023-03-07T07:58:01;3.47;;;1.50;;
11763;SDS011;5939;56.522;14.950;2023-03-07T08:00:27;2.40;;;1.80;;
11763;SDS011;5939;56.522;14.950;2023-03-07T08:02:52;2.67;;;1.77;;
11763;SDS011;5939;56.522;14.950;2023-03-07T08:05:19;2.03;;;1.50;;
11763;SDS011;5939;56.522;14.950;2023-03-07T08:07:45;2.70;;;1.63;;
11763;SDS011;5939;56.522;14.950;2023-03-07T08:10:12;4.17;;;1.90;;
11763;SDS011;5939;56.522;14.950;2023-03-07T08:12:48;2.73;;;1.70;;
11763;SDS011;5939;56.522;14.950;2023-03-07T08:15:15;2.90;;;1.60;;
11763;SDS011;5939;56.522;14.950;2023-03-07T08:17:42;2.77;;;1.60;;
11763;SDS011;5939;56.522;14.950;2023-03-07T08:20:08;2.97;;;1.80;;
11763;SDS011;5939;56.522;14.950;2023-03-07T08:22:35;15.43;;;7.30;;
11763;SDS011;5939;56.522;14.950;2023-03-07T08:25:01;4.23;;;2.70;;
11763;SDS011;5939;56.522;14.950;2023-03-07T08:27:28;4.73;;;2.30;;
11763;SDS011;5939;56.522;14.950;2023-03-07T08:29:54;4.60;;;2.70;;
11763;SDS011;5939;56.522;14.950;2023-03-07T08:32:19;3.77;;;2.20;;
11763;SDS011;5939;56.522;14.950;2023-03-07T08:34:45;4.67;;;2.13;;
11763;SDS011;5939;56.522;14.950;2023-03-07T08:37:11;4.13;;;2.03;;
11763;SDS011;5939;56.522;14.950;2023-03-07T08:39:36;3.10;;;2.00;;
11763;SDS011;5939;56.522;14.950;2023-03-07T08:42:02;3.13;;;2.10;;
11763;SDS011;5939;56.522;14.950;2023-03-07T08:44:28;4.20;;;2.43;;
11763;SDS011;5939;56.522;14.950;2023-03-07T08:46:53;4.00;;;2.43;;
11763;SDS011;5939;56.522;14.950;2023-03-07T08:49:19;2.37;;;1.97;;
11763;SDS011;5939;56.522;14.950;2023-03-07T08:51:48;4.57;;;2.20;;
11763;SDS011;5939;56.522;14.950;2023-03-07T08:54:13;2.57;;;2.10;;
11763;SDS011;5939;56.522;14.950;2023-03-07T08:56:39;4.47;;;2.40;;
11763;SDS011;5939;56.522;14.950;2023-03-07T08:59:05;3.30;;;2.40;;
11763;SDS011;5939;56.522;14.950;2023-03-07T09:01:31;4.10;;;2.10;;
11763;SDS011;5939;56.522;14.950;2023-03-07T09:03:57;3.80;;;2.33;;
11763;SDS011;5939;56.522;14.950;2023-03-07T09:06:22;4.90;;;2.57;;
11763;SDS011;5939;56.522;14.950;2023-03-07T09:08:48;3.60;;;2.23;;
11763;SDS011;5939;56.522;14.950;2023-03-07T09:11:15;3.63;;;2.53;;
11763;SDS011;5939;56.522;14.950;2023-03-07T09:13:42;2.90;;;2.07;;
11763;SDS011;5939;56.522;14.950;2023-03-07T09:16:08;3.87;;;2.60;;
11763;SDS011;5939;56.522;14.950;2023-03-07T09:18:34;4.83;;;2.67;;
11763;SDS011;5939;56.522;14.950;2023-03-07T09:21:00;3.53;;;2.00;;
11763;SDS011;5939;56.522;14.950;2023-03-07T09:23:27;4.03;;;2.40;;
11763;SDS011;5939;56.522;14.950;2023-03-07T09:25:53;3.63;;;2.10;;
11763;SDS011;5939;56.522;14.950;2023-03-07T09:28:18;3.13;;;2.23;;
11763;SDS011;5939;56.522;14.950;2023-03-07T09:30:44;2.60;;;2.40;;
11763;SDS011;5939;56.522;14.950;2023-03-07T09:33:10;3.23;;;2.20;;
11763;SDS011;5939;56.522;14.950;2023-03-07T09:35:38;5.47;;;2.30;;
11763;SDS011;5939;56.522;14.950;2023-03-07T09:38:04;2.30;;;2.10;;
11763;SDS011;5939;56.522;14.950;2023-03-07T09:40:30;3.87;;;2.03;;
11763;SDS011;5939;56.522;14.950;2023-03-07T09:45:30;3.50;;;2.27;;
11763;SDS011;5939;56.522;14.950;2023-03-07T09:50:53;3.83;;;2.07;;
11763;SDS011;5939;56.522;14.950;2023-03-07T09:56:01;3.07;;;1.97;;
11763;SDS011;5939;56.522;14.950;2023-03-07T09:58:32;2.50;;;2.00;;
11763;SDS011;5939;56.522;14.950;2023-03-07T10:01:02;3.27;;;2.23;;
11763;SDS011;5939;56.522;14.950;2023-03-07T10:06:24;2.53;;;2.00;;
11763;SDS011;5939;56.522;14.950;2023-03-07T10:08:49;2.47;;;1.80;;
11763;SDS011;5939;56.522;14.950;2023-03-07T10:14:21;2.53;;;2.00;;
11763;SDS011;5939;56.522;14.950;2023-03-07T10:17:26;2.73;;;2.07;;
11763;SDS011;5939;56.522;14.950;2023-03-07T10:20:30;2.50;;;2.10;;
11763;SDS011;5939;56.522;14.950;2023-03-07T10:25:45;2.63;;;2.07;;
11763;SDS011;5939;56.522;14.950;2023-03-07T10:30:51;3.07;;;2.30;;
11763;SDS011;5939;56.522;14.950;2023-03-07T10:33:26;2.77;;;2.23;;
11763;SDS011;5939;56.522;14.950;2023-03-07T10:36:01;5.27;;;2.90;;
11763;SDS011;5939;56.522;14.950;2023-03-07T10:38:36;3.50;;;2.70;;
11763;SDS011;5939;56.522;14.950;2023-03-07T10:41:15;4.07;;;2.63;;
11763;SDS011;5939;56.522;14.950;2023-03-07T10:43:45;3.20;;;2.70;;
11763;SDS011;5939;56.522;14.950;2023-03-07T10:46:17;6.47;;;3.53;;
11763;SDS011;5939;56.522;14.950;2023-03-07T10:48:44;5.77;;;3.23;;
11763;SDS011;5939;56.522;14.950;2023-03-07T10:54:10;5.13;;;3.37;;
11763;SDS011;5939;56.522;14.950;2023-03-07T10:56:47;4.97;;;3.57;;
11763;SDS011;5939;56.522;14.950;2023-03-07T10:59:32;4.77;;;3.33;;
11763;SDS011;5939;56.522;14.950;2023-03-07T11:01:59;6.33;;;3.60;;
11763;SDS011;5939;56.522;14.950;2023-03-07T11:04:27;5.43;;;3.77;;
11763;SDS011;5939;56.522;14.950;2023-03-07T11:07:18;6.20;;;3.97;;
11763;SDS011;5939;56.522;14.950;2023-03-07T11:09:53;7.83;;;4.40;;
11763;SDS011;5939;56.522;14.950;2023-03-07T11:12:20;6.73;;;4.10;;
11763;SDS011;5939;56.522;14.950;2023-03-07T11:14:48;5.23;;;3.70;;
11763;SDS011;5939;56.522;14.950;2023-03-07T11:17:26;5.57;;;3.97;;
11763;SDS011;5939;56.522;14.950;2023-03-07T11:20:23;7.50;;;4.20;;
11763;SDS011;5939;56.522;14.950;2023-03-07T11:23:33;6.67;;;4.43;;
11763;SDS011;5939;56.522;14.950;2023-03-07T11:25:51;5.73;;;3.90;;
11763;SDS011;5939;56.522;14.950;2023-03-07T11:31:03;7.63;;;4.60;;
11763;SDS011;5939;56.522;14.950;2023-03-07T11:36:36;7.53;;;4.37;;
11763;SDS011;5939;56.522;14.950;2023-03-07T11:39:06;6.83;;;4.23;;
11763;SDS011;5939;56.522;14.950;2023-03-07T11:41:58;7.07;;;4.23;;
11763;SDS011;5939;56.522;14.950;2023-03-07T11:55:46;5.77;;;4.50;;
11763;SDS011;5939;56.522;14.950;2023-03-07T11:58:46;6.63;;;4.23;;
11763;SDS011;5939;56.522;14.950;2023-03-07T12:01:31;6.10;;;3.97;;
11763;SDS011;5939;56.522;14.950;2023-03-07T12:17:30;6.47;;;4.00;;
11763;SDS011;5939;56.522;14.950;2023-03-07T12:23:23;6.50;;;4.13;;
11763;SDS011;5939;56.522;14.950;2023-03-07T12:25:44;6.77;;;4.20;;
11763;SDS011;5939;56.522;14.950;2023-03-07T12:28:17;6.87;;;4.17;;
11763;SDS011;5939;56.522;14.950;2023-03-07T12:31:07;4.77;;;3.57;;
11763;SDS011;5939;56.522;14.950;2023-03-07T12:36:38;6.00;;;3.77;;
11763;SDS011;5939;56.522;14.950;2023-03-07T12:41:49;5.67;;;3.67;;
11763;SDS011;5939;56.522;14.950;2023-03-07T12:46:53;4.57;;;3.30;;
11763;SDS011;5939;56.522;14.950;2023-03-07T12:49:37;5.53;;;3.90;;
11763;SDS011;5939;56.522;14.950;2023-03-07T12:52:11;6.07;;;4.10;;
11763;SDS011;5939;56.522;14.950;2023-03-07T12:54:44;6.07;;;4.33;;
11763;SDS011;5939;56.522;14.950;2023-03-07T12:57:23;5.03;;;3.50;;
11763;SDS011;5939;56.522;14.950;2023-03-07T12:59:56;5.43;;;3.17;;
11763;SDS011;5939;56.522;14.950;2023-03-07T13:02:28;5.50;;;3.30;;
11763;SDS011;5939;56.522;14.950;2023-03-07T13:04:56;7.70;;;3.67;;
11763;SDS011;5939;56.522;14.950;2023-03-07T13:07:25;4.77;;;3.40;;
11763;SDS011;5939;56.522;14.950;2023-03-07T13:09:54;4.90;;;3.37;;
11763;SDS011;5939;56.522;14.950;2023-03-07T13:12:27;5.57;;;3.40;;
11763;SDS011;5939;56.522;14.950;2023-03-07T13:15:04;7.00;;;3.60;;
11763;SDS011;5939;56.522;14.950;2023-03-07T13:20:01;6.23;;;3.40;;
11763;SDS011;5939;56.522;14.950;2023-03-07T13:27:55;5.50;;;3.33;;
11763;SDS011;5939;56.522;14.950;2023-03-07T13:30:29;4.43;;;3.20;;
11763;SDS011;5939;56.522;14.950;2023-03-07T13:33:03;5.83;;;3.40;;
11763;SDS011;5939;56.522;14.950;2023-03-07T13:41:06;6.13;;;3.60;;
11763;SDS011;5939;56.522;14.950;2023-03-07T13:43:53;3.67;;;3.10;;
11763;SDS011;5939;56.522;14.950;2023-03-07T13:46:29;6.07;;;3.57;;
11763;SDS011;5939;56.522;14.950;2023-03-07T13:49:07;5.27;;;3.30;;
11763;SDS011;5939;56.522;14.950;2023-03-07T13:51:33;4.10;;;3.10;;
11763;SDS011;5939;56.522;14.950;2023-03-07T13:54:00;4.33;;;2.93;;
11763;SDS011;5939;56.522;14.950;2023-03-07T13:56:28;5.13;;;3.10;;
11763;SDS011;5939;56.522;14.950;2023-03-07T14:06:46;5.20;;;2.70;;
11763;SDS011;5939;56.522;14.950;2023-03-07T14:09:20;3.40;;;2.53;;
11763;SDS011;5939;56.522;14.950;2023-03-07T14:14:42;3.90;;;2.90;;
11763;SDS011;5939;56.522;14.950;2023-03-07T14:20:13;4.03;;;2.90;;
11763;SDS011;5939;56.522;14.950;2023-03-07T14:23:28;3.83;;;2.63;;
11763;SDS011;5939;56.522;14.950;2023-03-07T14:25:47;3.83;;;2.70;;
11763;SDS011;5939;56.522;14.950;2023-03-07T14:30:58;4.67;;;3.00;;
11763;SDS011;5939;56.522;14.950;2023-03-07T14:33:31;4.17;;;2.93;;
11763;SDS011;5939;56.522;14.950;2023-03-07T14:36:02;5.20;;;2.57;;
11763;SDS011;5939;56.522;14.950;2023-03-07T14:38:40;5.03;;;2.93;;
11763;SDS011;5939;56.522;14.950;2023-03-07T14:41:19;4.00;;;2.70;;
11763;SDS011;5939;56.522;14.950;2023-03-07T14:46:56;3.67;;;2.40;;
11763;SDS011;5939;56.522;14.950;2023-03-07T14:50:20;3.97;;;2.50;;
11763;SDS011;5939;56.522;14.950;2023-03-07T14:52:40;3.37;;;2.10;;
11763;SDS011;5939;56.522;14.950;2023-03-07T14:55:13;3.53;;;2.50;;
11763;SDS011;5939;56.522;14.950;2023-03-07T14:57:42;3.97;;;2.37;;
11763;SDS011;5939;56.522;14.950;2023-03-07T15:02:48;3.80;;;2.20;;
11763;SDS011;5939;56.522;14.950;2023-03-07T15:05:20;2.90;;;2.10;;
11763;SDS011;5939;56.522;14.950;2023-03-07T15:07:46;2.07;;;1.80;;
11763;SDS011;5939;56.522;14.950;2023-03-07T15:10:13;3.17;;;2.33;;
11763;SDS011;5939;56.522;14.950;2023-03-07T15:12:59;2.83;;;1.90;;
11763;SDS011;5939;56.522;14.950;2023-03-07T15:15:30;2.40;;;1.90;;
11763;SDS011;5939;56.522;14.950;2023-03-07T15:18:11;1.90;;;1.70;;
11763;SDS011;5939;56.522;14.950;2023-03-07T15:20:52;2.53;;;1.77;;
11763;SDS011;5939;56.522;14.950;2023-03-07T15:23:21;2.80;;;1.70;;
11763;SDS011;5939;56.522;14.950;2023-03-07T15:25:53;2.43;;;1.77;;
11763;SDS011;5939;56.522;14.950;2023-03-07T15:28:26;3.20;;;1.80;;
11763;SDS011;5939;56.522;14.950;2023-03-07T15:30:55;2.00;;;1.60;;
11763;SDS011;5939;56.522;14.950;2023-03-07T15:33:25;1.87;;;1.50;;
11763;SDS011;5939;56.522;14.950;2023-03-07T15:38:36;1.80;;;1.50;;
11763;SDS011;5939;56.522;14.950;2023-03-07T15:44:02;2.63;;;1.40;;
11763;SDS011;5939;56.522;14.950;2023-03-07T15:46:29;2.23;;;1.60;;
11763;SDS011;5939;56.522;14.950;2023-03-07T15:48:56;1.53;;;1.33;;
11763;SDS011;5939;56.522;14.950;2023-03-07T15:51:22;1.47;;;1.30;;
11763;SDS011;5939;56.522;14.950;2023-03-07T15:56:26;1.23;;;1.10;;
11763;SDS011;5939;56.522;14.950;2023-03-07T15:59:06;1.50;;;1.40;;
11763;SDS011;5939;56.522;14.950;2023-03-07T16:01:41;1.40;;;1.30;;
11763;SDS011;5939;56.522;14.950;2023-03-07T16:04:24;1.43;;;1.20;;
11763;SDS011;5939;56.522;14.950;2023-03-07T16:07:04;1.40;;;1.30;;
11763;SDS011;5939;56.522;14.950;2023-03-07T16:09:39;1.13;;;1.03;;
11763;SDS011;5939;56.522;14.950;2023-03-07T16:12:09;1.47;;;1.13;;
11763;SDS011;5939;56.522;14.950;2023-03-07T16:14:41;1.40;;;1.13;;
11763;SDS011;5939;56.522;14.950;2023-03-07T16:17:49;1.13;;;1.03;;
11763;SDS011;5939;56.522;14.950;2023-03-07T16:20:01;1.30;;;1.00;;
11763;SDS011;5939;56.522;14.950;2023-03-07T16:22:28;1.10;;;1.00;;
11763;SDS011;5939;56.522;14.950;2023-03-07T16:24:55;1.10;;;1.00;;
11763;SDS011;5939;56.522;14.950;2023-03-07T16:27:21;1.43;;;1.20;;
11763;SDS011;5939;56.522;14.950;2023-03-07T16:29:50;1.10;;;1.00;;
11763;SDS011;5939;56.522;14.950;2023-03-07T16:32:18;1.20;;;1.10;;
11763;SDS011;5939;56.522;14.950;2023-03-07T16:34:46;1.30;;;1.13;;
11763;SDS011;5939;56.522;14.950;2023-03-07T16:37:13;1.20;;;1.10;;
11763;SDS011;5939;56.522;14.950;2023-03-07T16:39:39;1.27;;;1.00;;
11763;SDS011;5939;56.522;14.950;2023-03-07T16:42:05;1.53;;;1.10;;
11763;SDS011;5939;56.522;14.950;2023-03-07T16:44:37;1.20;;;1.10;;
11763;SDS011;5939;56.522;14.950;2023-03-07T16:47:05;1.80;;;1.23;;
11763;SDS011;5939;56.522;14.950;2023-03-07T16:49:36;1.20;;;1.10;;
11763;SDS011;5939;56.522;14.950;2023-03-07T16:52:02;1.23;;;1.13;;
11763;SDS011;5939;56.522;14.950;2023-03-07T16:54:28;1.77;;;1.23;;
11763;SDS011;5939;56.522;14.950;2023-03-07T16:56:53;1.93;;;1.13;;